Time;durP1;ratioP1;P1;durP2;ratioP2;P2;SDS_P1;SDS_P2;PMS_P1;PMS_P2;Temp;Humidity;BMP_temperature;BMP_pressure;BME280_temperature;BME280_humidity;BME280_pressure;Samples;Min_cycle;Max_cycle;Signal;HPM_P1;HPM_P2
2021/09/07 00:01:18;;;;;;;12.37;11.20;;;13.90;99.90;;;;;;4991096;28;20655;-92
2021/09/07 00:03:44;;;;;;;13.70;12.43;;;13.90;99.90;;;;;;4986752;28;20628;-92
2021/09/07 00:06:11;;;;;;;12.37;11.40;;;13.90;99.90;;;;;;4972925;28;21046;-92
2021/09/07 00:08:39;;;;;;;12.50;11.50;;;13.90;99.90;;;;;;5002964;28;20631;-93
2021/09/07 00:11:07;;;;;;;12.73;11.70;;;13.90;99.90;;;;;;5011501;28;20651;-94
2021/09/07 00:13:34;;;;;;;13.47;12.17;;;13.80;99.90;;;;;;5002238;28;20663;-94
2021/09/07 00:16:01;;;;;;;13.80;12.70;;;13.80;99.90;;;;;;4988941;28;20632;-95
2021/09/07 00:18:29;;;;;;;12.70;11.70;;;13.70;99.90;;;;;;4978620;28;20885;-93
2021/09/07 00:20:56;;;;;;;12.23;11.23;;;13.80;99.90;;;;;;4995181;28;20663;-92
2021/09/07 00:23:23;;;;;;;13.40;12.30;;;13.70;99.90;;;;;;4991717;28;20628;-92
2021/09/07 00:25:52;;;;;;;13.60;12.50;;;13.70;99.90;;;;;;4987966;28;20715;-93
2021/09/07 00:28:18;;;;;;;13.10;12.10;;;13.70;99.90;;;;;;4988494;28;20633;-92
2021/09/07 00:30:50;;;;;;;13.27;12.17;;;13.70;99.90;;;;;;4991362;28;20648;-92
2021/09/07 00:33:17;;;;;;;13.57;12.13;;;13.60;99.90;;;;;;4987585;28;21444;-93
2021/09/07 00:35:44;;;;;;;13.00;12.00;;;13.60;99.90;;;;;;4987717;28;21224;-92
2021/09/07 00:38:12;;;;;;;14.03;12.83;;;13.60;99.90;;;;;;4974556;28;20624;-91
2021/09/07 00:40:39;;;;;;;14.53;13.33;;;13.70;99.90;;;;;;4991006;28;20737;-92
2021/09/07 00:43:07;;;;;;;13.20;12.00;;;13.50;99.90;;;;;;4993556;28;20641;-93
2021/09/07 00:45:34;;;;;;;13.83;12.63;;;13.50;99.90;;;;;;4994525;28;20639;-92
2021/09/07 00:48:01;;;;;;;12.80;11.77;;;13.50;99.90;;;;;;4987657;28;20939;-93
2021/09/07 00:50:28;;;;;;;12.60;11.77;;;13.50;99.90;;;;;;4992912;28;20682;-92
2021/09/07 00:52:56;;;;;;;13.60;12.50;;;13.40;99.90;;;;;;4988933;28;20667;-93
2021/09/07 00:55:24;;;;;;;13.70;12.60;;;13.40;99.90;;;;;;4993598;28;20647;-92
2021/09/07 00:57:51;;;;;;;15.33;13.77;;;13.40;99.90;;;;;;4982567;28;20636;-92
2021/09/07 01:00:20;;;;;;;13.23;12.23;;;13.40;99.90;;;;;;4992341;28;20668;-92
2021/09/07 01:02:47;;;;;;;13.23;12.23;;;13.40;99.90;;;;;;4991656;28;20619;-92
2021/09/07 01:05:14;;;;;;;13.80;12.80;;;13.30;99.90;;;;;;4983048;28;20644;-92
2021/09/07 01:07:40;;;;;;;14.30;13.10;;;13.30;99.90;;;;;;4991288;28;20976;-92
2021/09/07 01:10:09;;;;;;;14.10;13.10;;;13.30;99.90;;;;;;4985597;28;20668;-92
2021/09/07 01:12:37;;;;;;;15.37;14.07;;;13.20;99.90;;;;;;4997994;28;20738;-92
2021/09/07 01:15:05;;;;;;;14.60;13.17;;;13.20;99.90;;;;;;4987349;28;20637;-92
2021/09/07 01:17:38;;;;;;;15.30;14.07;;;13.10;99.90;;;;;;4997699;28;20676;-92
2021/09/07 01:20:06;;;;;;;14.03;12.83;;;13.10;99.90;;;;;;4999824;28;20662;-92
2021/09/07 01:22:33;;;;;;;14.67;13.57;;;13.10;99.90;;;;;;4986742;28;20655;-91
2021/09/07 01:25:01;;;;;;;13.70;12.60;;;13.10;99.90;;;;;;4988633;28;20639;-92
2021/09/07 01:27:31;;;;;;;14.23;13.13;;;13.10;99.90;;;;;;4994381;28;20629;-93
2021/09/07 01:29:58;;;;;;;15.43;14.13;;;13.10;99.90;;;;;;4993297;28;20652;-92
2021/09/07 01:32:25;;;;;;;15.33;13.93;;;13.00;99.90;;;;;;4995921;28;20660;-91
2021/09/07 01:34:52;;;;;;;14.90;13.90;;;13.00;99.90;;;;;;4991628;28;20645;-92
2021/09/07 01:37:22;;;;;;;14.93;13.73;;;13.00;99.90;;;;;;4987615;28;20644;-94
2021/09/07 01:39:50;;;;;;;14.43;13.33;;;13.00;99.90;;;;;;4991344;28;20663;-92
2021/09/07 01:42:22;;;;;;;15.50;14.10;;;12.90;99.90;;;;;;4992572;28;20663;-92
2021/09/07 01:44:49;;;;;;;14.77;13.70;;;12.90;99.90;;;;;;4990624;28;20609;-90
2021/09/07 01:47:16;;;;;;;13.43;12.33;;;12.90;99.90;;;;;;4994691;28;20644;-91
2021/09/07 01:49:42;;;;;;;13.67;12.43;;;12.80;99.90;;;;;;4991526;28;20678;-92
2021/09/07 01:52:11;;;;;;;14.73;13.43;;;12.80;99.90;;;;;;4991315;28;20766;-91
2021/09/07 01:54:41;;;;;;;13.77;12.87;;;12.80;99.90;;;;;;4993372;28;21178;-93
2021/09/07 01:57:08;;;;;;;14.40;13.30;;;12.70;99.90;;;;;;4996842;28;20682;-94
2021/09/07 01:59:37;;;;;;;15.80;14.53;;;12.80;99.90;;;;;;4980193;28;21027;-91
2021/09/07 02:02:04;;;;;;;15.90;14.80;;;12.70;99.90;;;;;;4985857;28;20625;-91
2021/09/07 02:04:33;;;;;;;15.10;13.83;;;12.70;99.90;;;;;;4977116;28;20683;-92
2021/09/07 02:07:00;;;;;;;16.77;15.37;;;12.70;99.90;;;;;;4987027;28;21035;-92
2021/09/07 02:09:26;;;;;;;15.33;14.13;;;12.70;99.90;;;;;;4992595;28;20635;-91
2021/09/07 02:11:54;;;;;;;14.30;13.35;;;12.70;99.90;;;;;;4990902;28;20632;-91
2021/09/07 02:14:21;;;;;;;14.97;13.87;;;12.60;99.90;;;;;;4993812;28;21238;-92
2021/09/07 02:16:49;;;;;;;15.63;14.53;;;12.60;99.90;;;;;;4996290;28;20623;-92
2021/09/07 02:19:16;;;;;;;15.57;14.40;;;12.60;99.90;;;;;;4975647;28;20625;-92
2021/09/07 02:21:43;;;;;;;16.33;15.03;;;12.60;99.90;;;;;;4999418;28;20616;-92
2021/09/07 02:24:10;;;;;;;17.97;16.37;;;12.60;99.90;;;;;;4993493;28;20630;-92
2021/09/07 02:26:37;;;;;;;16.17;14.97;;;12.50;99.90;;;;;;4993421;28;20627;-91
2021/09/07 02:29:04;;;;;;;15.43;14.33;;;12.50;99.90;;;;;;4990701;28;20714;-92
2021/09/07 02:31:31;;;;;;;16.20;14.90;;;12.50;99.90;;;;;;4988017;28;20661;-91
2021/09/07 02:34:00;;;;;;;16.50;14.93;;;12.50;99.90;;;;;;4995320;28;20672;-92
2021/09/07 02:36:27;;;;;;;16.43;15.00;;;12.50;99.90;;;;;;4971393;28;20627;-91
2021/09/07 02:38:54;;;;;;;15.00;13.80;;;12.40;99.90;;;;;;4992391;28;20624;-92
2021/09/07 02:41:21;;;;;;;15.20;14.10;;;12.50;99.90;;;;;;4983775;28;20664;-91
2021/09/07 02:43:48;;;;;;;17.53;16.13;;;12.50;99.90;;;;;;4988990;28;20639;-91
2021/09/07 02:46:15;;;;;;;16.57;15.10;;;12.40;99.90;;;;;;4985121;28;20621;-91
2021/09/07 02:48:42;;;;;;;15.90;14.70;;;12.40;99.90;;;;;;4969677;28;20998;-91
2021/09/07 02:51:12;;;;;;;17.10;15.60;;;12.40;99.90;;;;;;4988508;28;20660;-91
2021/09/07 02:53:39;;;;;;;15.60;14.40;;;12.40;99.90;;;;;;4977488;28;20695;-91
2021/09/07 02:56:06;;;;;;;15.93;14.73;;;12.30;99.90;;;;;;4971446;28;21160;-92
2021/09/07 02:58:33;;;;;;;16.73;15.33;;;12.30;99.90;;;;;;4988560;28;20676;-92
2021/09/07 03:01:07;;;;;;;16.37;15.07;;;12.30;99.90;;;;;;4991076;28;20703;-93
2021/09/07 03:03:34;;;;;;;16.60;15.37;;;12.30;99.90;;;;;;4993819;28;20621;-91
2021/09/07 03:06:01;;;;;;;16.57;14.93;;;12.30;99.90;;;;;;4984225;28;20622;-92
2021/09/07 03:08:29;;;;;;;17.80;16.47;;;12.30;99.90;;;;;;4991546;28;20633;-91
2021/09/07 03:10:56;;;;;;;16.70;15.40;;;12.20;99.90;;;;;;4985793;28;20657;-92
2021/09/07 03:13:23;;;;;;;16.10;14.80;;;12.20;99.90;;;;;;4993462;28;20673;-89
2021/09/07 03:15:50;;;;;;;17.97;16.60;;;12.10;99.90;;;;;;4986775;28;20644;-89
2021/09/07 03:18:17;;;;;;;18.40;16.90;;;12.10;99.90;;;;;;4968989;28;20629;-88
2021/09/07 03:20:44;;;;;;;18.17;16.73;;;12.10;99.90;;;;;;4993117;28;20655;-89
2021/09/07 03:23:16;;;;;;;17.90;16.40;;;12.00;99.90;;;;;;4988969;28;21322;-88
2021/09/07 03:25:44;;;;;;;18.30;16.80;;;12.10;99.90;;;;;;4990189;28;20626;-88
2021/09/07 03:28:10;;;;;;;15.70;14.50;;;12.10;99.90;;;;;;4982257;28;20625;-89
2021/09/07 03:30:38;;;;;;;17.23;15.83;;;12.00;99.90;;;;;;4992274;28;20657;-90
2021/09/07 03:33:07;;;;;;;18.27;16.87;;;12.00;99.90;;;;;;4988664;28;20662;-90
2021/09/07 03:35:34;;;;;;;18.33;16.93;;;12.00;99.90;;;;;;4987650;28;20783;-89
2021/09/07 03:38:02;;;;;;;18.47;17.17;;;12.00;99.90;;;;;;4987683;28;21161;-90
2021/09/07 03:40:29;;;;;;;17.70;16.20;;;11.90;99.90;;;;;;4992863;28;20648;-89
2021/09/07 03:42:57;;;;;;;19.60;18.10;;;11.90;99.90;;;;;;4991312;28;20943;-90
2021/09/07 03:45:24;;;;;;;19.47;18.07;;;11.90;99.90;;;;;;4989175;28;20647;-90
2021/09/07 03:47:51;;;;;;;20.03;18.53;;;11.80;99.90;;;;;;4989214;28;20608;-89
2021/09/07 03:50:20;;;;;;;17.90;16.60;;;11.80;99.90;;;;;;4989076;28;20671;-90
2021/09/07 03:52:47;;;;;;;18.10;16.57;;;11.80;99.90;;;;;;4984426;28;21025;-89
2021/09/07 03:55:14;;;;;;;18.00;16.70;;;11.70;99.90;;;;;;4991113;28;20629;-90
2021/09/07 03:57:41;;;;;;;18.00;16.60;;;11.70;99.90;;;;;;4989390;28;20627;-90
2021/09/07 04:00:11;;;;;;;18.27;16.93;;;11.60;99.90;;;;;;4969168;28;21364;-88
2021/09/07 04:02:38;;;;;;;17.40;16.10;;;11.60;99.90;;;;;;4992738;28;20617;-88
2021/09/07 04:05:06;;;;;;;18.40;17.10;;;11.60;99.90;;;;;;4978985;28;20737;-88
2021/09/07 04:07:33;;;;;;;17.97;16.67;;;11.60;99.90;;;;;;4989446;28;20641;-89
2021/09/07 04:10:00;;;;;;;18.80;17.50;;;11.60;99.90;;;;;;4985922;28;21021;-88
2021/09/07 04:12:26;;;;;;;17.77;16.47;;;11.60;99.90;;;;;;4982638;28;20633;-88
2021/09/07 04:14:53;;;;;;;19.90;18.10;;;11.50;99.90;;;;;;4988667;28;20632;-88
2021/09/07 04:17:22;;;;;;;19.30;17.80;;;11.60;99.90;;;;;;4984628;28;20637;-88
2021/09/07 04:19:48;;;;;;;18.87;17.33;;;11.50;99.90;;;;;;4984217;28;20687;-88
2021/09/07 04:22:15;;;;;;;20.50;18.80;;;11.50;99.90;;;;;;4987597;28;20604;-88
2021/09/07 04:24:42;;;;;;;19.57;18.00;;;11.50;99.90;;;;;;4982522;28;20624;-88
2021/09/07 04:27:09;;;;;;;20.33;18.83;;;11.50;99.90;;;;;;4983799;28;20623;-88
2021/09/07 04:29:36;;;;;;;23.17;21.27;;;11.50;99.90;;;;;;4989502;28;20652;-88
2021/09/07 04:32:02;;;;;;;19.63;18.13;;;11.50;99.90;;;;;;4982843;28;20647;-87
2021/09/07 04:34:31;;;;;;;19.33;17.93;;;11.50;99.90;;;;;;4986620;28;20672;-90
2021/09/07 04:36:57;;;;;;;20.07;18.40;;;11.50;99.90;;;;;;4985533;28;20624;-87
2021/09/07 04:39:24;;;;;;;19.50;17.80;;;11.50;99.90;;;;;;4989915;28;20620;-88
2021/09/07 04:41:52;;;;;;;19.13;17.57;;;11.40;99.90;;;;;;4988718;28;20635;-88
2021/09/07 04:44:21;;;;;;;19.30;17.80;;;11.40;99.90;;;;;;4988240;28;20619;-88
2021/09/07 04:46:48;;;;;;;18.87;17.47;;;11.40;99.90;;;;;;4990110;28;21185;-88
2021/09/07 04:49:14;;;;;;;21.73;20.00;;;11.50;99.90;;;;;;4994151;28;20628;-88
2021/09/07 04:51:42;;;;;;;21.37;19.50;;;11.50;99.90;;;;;;4983848;28;20657;-89
2021/09/07 04:54:09;;;;;;;22.27;20.30;;;11.50;99.90;;;;;;4982132;28;20669;-88
2021/09/07 04:56:36;;;;;;;20.13;18.73;;;11.50;99.90;;;;;;4985103;28;20632;-88
2021/09/07 04:59:03;;;;;;;19.30;17.63;;;11.50;99.90;;;;;;4964756;28;20818;-89
2021/09/07 05:01:30;;;;;;;23.63;18.07;;;11.50;99.90;;;;;;4986923;28;20668;-88
2021/09/07 05:03:57;;;;;;;19.13;17.70;;;11.50;99.90;;;;;;4983128;28;20633;-89
2021/09/07 05:06:24;;;;;;;18.83;17.40;;;11.50;99.90;;;;;;4982098;28;20637;-88
2021/09/07 05:08:52;;;;;;;18.93;17.43;;;11.50;99.90;;;;;;4982584;28;20635;-88
2021/09/07 05:11:19;;;;;;;20.50;18.80;;;11.50;99.90;;;;;;4980532;28;21100;-88
2021/09/07 05:13:45;;;;;;;20.63;19.13;;;11.60;99.90;;;;;;4981058;28;20661;-89
2021/09/07 05:16:12;;;;;;;20.83;19.17;;;11.60;99.90;;;;;;4986966;28;21037;-88
2021/09/07 05:18:40;;;;;;;20.27;18.53;;;11.60;99.90;;;;;;4981381;28;20624;-89
2021/09/07 05:21:07;;;;;;;19.20;17.80;;;11.60;99.90;;;;;;4970338;28;20656;-88
2021/09/07 05:23:34;;;;;;;19.67;18.23;;;11.70;99.90;;;;;;4986992;28;21189;-89
2021/09/07 05:26:02;;;;;;;20.10;18.60;;;11.80;99.90;;;;;;4987191;28;20990;-89
2021/09/07 05:28:29;;;;;;;21.23;19.30;;;11.90;99.90;;;;;;4990272;28;20727;-89
2021/09/07 05:30:57;;;;;;;19.73;18.33;;;12.00;99.90;;;;;;4992188;28;20749;-89
2021/09/07 05:33:26;;;;;;;20.67;19.07;;;12.00;99.90;;;;;;4983612;28;21027;-88
2021/09/07 05:35:53;;;;;;;19.60;18.03;;;12.00;99.90;;;;;;4984847;28;21233;-88
2021/09/07 05:38:21;;;;;;;19.43;17.90;;;12.10;99.90;;;;;;4984336;28;20641;-89
2021/09/07 05:40:48;;;;;;;19.77;18.27;;;12.10;99.90;;;;;;4986239;28;20648;-88
2021/09/07 05:43:16;;;;;;;21.10;19.17;;;12.10;99.90;;;;;;4984436;28;20930;-88
2021/09/07 05:45:42;;;;;;;19.70;17.93;;;12.30;99.90;;;;;;4981010;28;21072;-89
2021/09/07 05:48:09;;;;;;;20.93;19.23;;;12.40;99.90;;;;;;4978710;28;20620;-89
2021/09/07 05:50:36;;;;;;;19.53;18.13;;;12.40;99.90;;;;;;4983882;28;20648;-88
2021/09/07 05:53:03;;;;;;;19.23;17.73;;;12.40;99.90;;;;;;4985143;28;20624;-87
2021/09/07 05:55:30;;;;;;;19.27;17.73;;;12.50;99.90;;;;;;4987244;28;20967;-88
2021/09/07 05:57:57;;;;;;;18.90;17.40;;;12.50;99.90;;;;;;4983112;28;20692;-88
2021/09/07 06:00:25;;;;;;;18.33;16.83;;;12.50;99.90;;;;;;4986508;28;20666;-87
2021/09/07 06:02:56;;;;;;;19.80;18.27;;;12.50;99.90;;;;;;4984412;28;21196;-88
2021/09/07 06:05:23;;;;;;;18.73;17.07;;;12.50;99.90;;;;;;4982956;28;20684;-88
2021/09/07 06:07:50;;;;;;;19.77;18.17;;;12.60;99.90;;;;;;4991692;28;20641;-88
2021/09/07 06:10:17;;;;;;;20.03;18.13;;;12.70;99.90;;;;;;4989104;28;21232;-87
2021/09/07 06:12:44;;;;;;;18.67;17.30;;;12.80;99.90;;;;;;4984326;28;20646;-87
2021/09/07 06:15:11;;;;;;;19.40;17.90;;;12.80;99.90;;;;;;4982725;28;20665;-87
2021/09/07 06:17:39;;;;;;;19.40;17.90;;;12.80;99.90;;;;;;4985732;28;21414;-87
2021/09/07 06:20:07;;;;;;;18.30;16.90;;;12.80;99.90;;;;;;4980656;28;20656;-87
2021/09/07 06:22:34;;;;;;;18.20;16.80;;;12.80;99.90;;;;;;4990597;28;20633;-87
2021/09/07 06:25:00;;;;;;;18.90;17.37;;;12.90;99.90;;;;;;4987403;28;20629;-88
2021/09/07 06:27:28;;;;;;;20.10;18.53;;;13.00;99.90;;;;;;4986289;28;20628;-87
2021/09/07 06:29:55;;;;;;;18.90;17.27;;;13.20;99.90;;;;;;4988142;28;20657;-87
2021/09/07 06:32:22;;;;;;;18.80;17.10;;;13.30;99.90;;;;;;4986283;28;20632;-88
2021/09/07 06:34:50;;;;;;;19.30;17.70;;;13.20;99.90;;;;;;4981431;28;20651;-88
2021/09/07 06:37:17;;;;;;;16.97;15.87;;;13.30;99.90;;;;;;4988868;28;20623;-87
2021/09/07 06:39:43;;;;;;;18.23;16.70;;;13.30;99.90;;;;;;4982996;28;20643;-87
2021/09/07 06:42:11;;;;;;;18.70;16.90;;;13.40;99.90;;;;;;4991191;28;21334;-89
2021/09/07 06:44:38;;;;;;;18.40;16.77;;;13.50;99.90;;;;;;4991544;28;20625;-88
2021/09/07 06:47:05;;;;;;;18.30;16.43;;;13.40;99.90;;;;;;4990915;28;20629;-87
2021/09/07 06:49:31;;;;;;;16.13;14.83;;;13.50;99.90;;;;;;4990953;28;20662;-88
2021/09/07 06:52:01;;;;;;;18.10;16.40;;;13.50;99.90;;;;;;4987366;28;21018;-87
2021/09/07 06:54:28;;;;;;;16.60;15.10;;;13.60;99.90;;;;;;4983841;28;20675;-88
2021/09/07 06:56:55;;;;;;;17.00;15.70;;;13.70;99.90;;;;;;4988263;28;20638;-87
2021/09/07 06:59:21;;;;;;;17.90;16.40;;;13.70;99.90;;;;;;4986961;28;20643;-87
2021/09/07 07:01:48;;;;;;;16.60;15.23;;;13.80;99.90;;;;;;4989862;28;20623;-87
2021/09/07 07:04:15;;;;;;;17.20;15.63;;;13.90;99.90;;;;;;4987669;28;20716;-88
2021/09/07 07:06:42;;;;;;;17.03;15.57;;;14.00;99.90;;;;;;4989662;28;20625;-87
2021/09/07 07:09:10;;;;;;;17.23;15.80;;;14.00;99.90;;;;;;4989795;28;20669;-88
2021/09/07 07:11:37;;;;;;;16.90;15.40;;;14.30;99.90;;;;;;4989189;28;20753;-86
2021/09/07 07:14:04;;;;;;;16.97;15.70;;;14.50;99.90;;;;;;4986671;28;20661;-86
2021/09/07 07:16:31;;;;;;;15.77;14.37;;;14.70;99.90;;;;;;4986511;28;21118;-87
2021/09/07 07:18:58;;;;;;;15.87;14.57;;;14.90;99.90;;;;;;4981845;28;20990;-88
2021/09/07 07:21:27;;;;;;;16.50;15.03;;;15.10;99.90;;;;;;4985079;28;20654;-87
2021/09/07 07:23:54;;;;;;;14.77;13.67;;;15.30;99.90;;;;;;4985948;28;20626;-89
2021/09/07 07:26:22;;;;;;;15.10;13.67;;;15.40;99.90;;;;;;4987274;28;20629;-89
2021/09/07 07:28:49;;;;;;;15.80;14.10;;;15.40;99.90;;;;;;4985899;28;20616;-88
2021/09/07 07:31:16;;;;;;;15.67;14.33;;;15.50;99.90;;;;;;4988255;28;20648;-86
2021/09/07 07:33:43;;;;;;;15.10;13.90;;;15.50;99.90;;;;;;4986772;28;20620;-87
2021/09/07 07:36:10;;;;;;;14.47;13.27;;;15.60;99.90;;;;;;4986867;28;20649;-88
2021/09/07 07:38:37;;;;;;;14.37;13.23;;;15.50;99.90;;;;;;4976453;28;20656;-86
2021/09/07 07:41:04;;;;;;;15.10;13.80;;;15.70;99.90;;;;;;4987873;28;20640;-87
2021/09/07 07:43:33;;;;;;;14.10;12.67;;;15.90;99.90;;;;;;4991261;28;21004;-87
2021/09/07 07:46:00;;;;;;;14.17;12.90;;;16.10;99.90;;;;;;4995573;28;20637;-87
2021/09/07 07:48:27;;;;;;;15.10;13.73;;;16.40;99.90;;;;;;4995877;28;21536;-87
2021/09/07 07:50:54;;;;;;;15.07;13.73;;;16.50;99.90;;;;;;4991526;28;20663;-87
2021/09/07 07:53:21;;;;;;;12.80;11.80;;;16.90;99.90;;;;;;4991989;28;20627;-87
2021/09/07 07:55:50;;;;;;;14.30;12.97;;;17.00;99.90;;;;;;4986664;28;20676;-89
2021/09/07 07:58:17;;;;;;;13.97;12.87;;;17.30;99.90;;;;;;4993735;28;20734;-87
2021/09/07 08:00:46;;;;;;;14.10;12.40;;;17.50;99.90;;;;;;4988949;28;20651;-87
2021/09/07 08:03:13;;;;;;;12.23;11.20;;;17.60;99.90;;;;;;4988068;28;20643;-88
2021/09/07 08:05:40;;;;;;;15.03;12.20;;;17.80;99.90;;;;;;4986636;28;21080;-89
2021/09/07 08:08:07;;;;;;;12.57;11.37;;;17.90;99.90;;;;;;4990316;28;20632;-87
2021/09/07 08:10:34;;;;;;;13.33;12.10;;;17.80;99.90;;;;;;4990687;28;20683;-89
2021/09/07 08:13:01;;;;;;;13.70;12.47;;;17.90;99.90;;;;;;4986045;28;20756;-89
2021/09/07 08:15:28;;;;;;;12.90;11.90;;;18.20;99.90;;;;;;4987022;28;20668;-88
2021/09/07 08:17:56;;;;;;;13.30;12.20;;;18.10;99.90;;;;;;4993884;28;21242;-88
2021/09/07 08:20:24;;;;;;;12.70;11.80;;;17.90;99.90;;;;;;4991940;28;20800;-88
2021/09/07 08:22:50;;;;;;;12.73;11.70;;;18.40;99.90;;;;;;4987072;28;20641;-88
2021/09/07 08:25:17;;;;;;;12.77;11.50;;;18.50;99.90;;;;;;5002313;28;20702;-88
2021/09/07 08:27:44;;;;;;;13.20;11.90;;;18.70;99.90;;;;;;4990915;28;21324;-87
2021/09/07 08:30:12;;;;;;;13.40;11.30;;;18.80;99.90;;;;;;4993419;28;20645;-87
2021/09/07 08:32:40;;;;;;;11.20;10.10;;;18.70;99.90;;;;;;4989156;28;20650;-88
2021/09/07 08:35:10;;;;;;;13.33;12.20;;;18.70;99.90;;;;;;4991515;28;20645;-88
2021/09/07 08:37:38;;;;;;;17.03;10.87;;;19.20;99.90;;;;;;4985237;28;20633;-87
2021/09/07 08:40:07;;;;;;;14.03;12.63;;;19.20;99.90;;;;;;4982664;28;20648;-88
2021/09/07 08:42:35;;;;;;;12.63;10.80;;;19.20;99.90;;;;;;4992902;28;21246;-87
2021/09/07 08:45:03;;;;;;;12.33;11.00;;;19.40;99.90;;;;;;4994710;28;20626;-88
2021/09/07 08:47:31;;;;;;;12.13;10.93;;;19.50;99.90;;;;;;4989636;28;20644;-89
2021/09/07 08:50:01;;;;;;;11.43;9.87;;;19.60;99.90;;;;;;4985801;28;20744;-89
2021/09/07 08:52:29;;;;;;;9.93;8.93;;;20.10;99.90;;;;;;4985839;28;20656;-88
2021/09/07 08:54:56;;;;;;;11.90;9.40;;;19.80;99.90;;;;;;4988893;28;20668;-88
2021/09/07 08:57:23;;;;;;;10.40;9.43;;;20.00;99.90;;;;;;4990308;28;20637;-88
2021/09/07 08:59:57;;;;;;;9.70;8.87;;;20.00;99.90;;;;;;4990392;28;20718;-88
2021/09/07 09:02:25;;;;;;;9.90;8.90;;;20.20;99.90;;;;;;4987667;28;21042;-88
2021/09/07 09:04:54;;;;;;;9.40;8.53;;;20.60;99.90;;;;;;4988571;28;20643;-87
2021/09/07 09:07:22;;;;;;;10.23;9.27;;;20.80;99.90;;;;;;4988837;28;20652;-88
2021/09/07 09:09:52;;;;;;;9.20;8.40;;;20.90;99.90;;;;;;4991646;28;21078;-87
2021/09/07 09:12:33;;;;;;;11.53;8.90;;;21.10;99.90;;;;;;4986771;28;20635;-88
2021/09/07 09:15:00;;;;;;;11.43;8.60;;;20.90;99.90;;;;;;4989264;28;20661;-92
2021/09/07 09:17:32;;;;;;;12.13;8.80;;;21.20;99.90;;;;;;4990926;28;20647;-91
2021/09/07 09:20:02;;;;;;;9.63;8.73;;;21.60;99.90;;;;;;4983999;28;20668;-89
2021/09/07 09:22:47;;;;;;;9.13;8.33;;;21.80;99.90;;;;;;4989188;28;20624;-89
2021/09/07 09:25:39;;;;;;;10.30;9.50;;;21.90;99.90;;;;;;4991921;28;20635;-90
2021/09/07 09:28:18;;;;;;;9.13;8.33;;;22.20;99.90;;;;;;4987853;28;20656;-90
2021/09/07 09:30:46;;;;;;;11.17;8.13;;;22.40;99.90;;;;;;4985842;28;20663;-90
2021/09/07 09:33:15;;;;;;;9.97;8.10;;;22.40;99.90;;;;;;4986558;28;20637;-90
2021/09/07 09:35:47;;;;;;;9.80;7.53;;;22.70;99.90;;;;;;4990794;28;20656;-91
2021/09/07 09:38:14;;;;;;;9.20;8.37;;;22.80;99.90;;;;;;4991695;28;21088;-91
2021/09/07 09:40:43;;;;;;;9.23;8.33;;;22.70;99.90;;;;;;4996760;28;20794;-90
2021/09/07 09:43:32;;;;;;;9.20;8.30;;;23.00;99.90;;;;;;5001523;28;20620;-90
2021/09/07 09:46:15;;;;;;;8.90;8.10;;;23.20;99.90;;;;;;4992983;28;20773;-92
2021/09/07 09:48:42;;;;;;;9.97;9.17;;;23.40;99.90;;;;;;4993692;28;20646;-90
2021/09/07 09:51:09;;;;;;;9.50;8.80;;;23.70;99.90;;;;;;4996851;28;20664;-90
2021/09/07 09:53:38;;;;;;;8.70;7.90;;;23.80;99.90;;;;;;4993466;28;20997;-91
2021/09/07 09:56:08;;;;;;;11.87;9.90;;;24.00;99.90;;;;;;4995430;28;20664;-93
2021/09/07 09:58:35;;;;;;;9.53;8.40;;;24.10;98.90;;;;;;4980750;28;20683;-91
2021/09/07 10:01:02;;;;;;;9.57;8.67;;;24.20;98.70;;;;;;5001430;28;21334;-90
2021/09/07 10:03:29;;;;;;;8.50;7.70;;;24.60;97.50;;;;;;5005669;28;21101;-91
2021/09/07 10:05:56;;;;;;;10.30;9.17;;;24.70;97.80;;;;;;4990665;28;20748;-91
2021/09/07 10:08:23;;;;;;;9.23;8.17;;;24.80;97.60;;;;;;4999593;28;21193;-94
2021/09/07 10:10:58;;;;;;;10.77;9.47;;;25.00;97.20;;;;;;5007354;28;20670;-93
2021/09/07 10:13:28;;;;;;;10.37;9.43;;;25.20;96.20;;;;;;5000013;28;20662;-93
2021/09/07 10:16:00;;;;;;;9.87;9.07;;;25.40;96.30;;;;;;4996520;28;20687;-93
2021/09/07 10:22:59;;;;;;;9.97;9.07;;;25.60;94.90;;;;;;5000329;28;20657;-95
2021/09/07 10:24:13;;;;;;;9.43;8.30;;;25.90;94.10;;;;;;4992865;28;20616;-93
2021/09/07 10:26:54;;;;;;;10.30;9.40;;;26.40;93.90;;;;;;4997017;28;20643;-94
2021/09/07 10:29:42;;;;;;;10.50;9.50;;;26.50;93.50;;;;;;5003030;28;20985;-94
2021/09/07 10:32:27;;;;;;;9.73;8.73;;;26.70;92.00;;;;;;5005755;28;20629;-95
2021/09/07 10:35:16;;;;;;;10.33;9.43;;;26.60;92.90;;;;;;4999388;28;20771;-96
2021/09/07 10:38:09;;;;;;;10.97;9.67;;;26.60;91.70;;;;;;5002776;28;20658;-94
2021/09/07 10:40:48;;;;;;;10.00;9.10;;;26.70;91.00;;;;;;5005465;28;21214;-95
2021/09/07 10:43:50;;;;;;;9.90;9.00;;;26.80;90.60;;;;;;5000962;28;20632;-95
2021/09/07 10:46:42;;;;;;;9.13;8.43;;;27.10;89.70;;;;;;4923671;29;20636;-96
2021/09/07 10:49:22;;;;;;;8.07;7.40;;;27.10;88.60;;;;;;5013946;28;20628;-95
2021/09/07 10:52:14;;;;;;;9.10;8.30;;;27.40;88.20;;;;;;4997717;28;20698;-96
2021/09/07 10:54:46;;;;;;;9.30;8.50;;;27.40;89.40;;;;;;5002443;28;20620;-94
2021/09/07 10:57:48;;;;;;;10.10;8.93;;;27.40;84.40;;;;;;4998253;28;20650;-95
2021/09/07 11:00:35;;;;;;;9.00;7.50;;;27.80;85.70;;;;;;4996669;28;20767;-95
2021/09/07 11:03:09;;;;;;;8.50;7.83;;;28.10;81.70;;;;;;5000309;28;20659;-95
2021/09/07 11:05:41;;;;;;;9.07;8.17;;;28.30;81.70;;;;;;4995744;28;21242;-95
2021/09/07 11:08:12;;;;;;;8.20;7.60;;;28.60;80.20;;;;;;4999107;28;20634;-94
2021/09/07 11:10:41;;;;;;;8.00;7.20;;;28.30;79.20;;;;;;5002914;28;20643;-94
2021/09/07 11:13:21;;;;;;;7.93;7.33;;;28.70;79.80;;;;;;4994900;28;20625;-94
2021/09/07 11:15:50;;;;;;;7.87;7.27;;;28.70;77.20;;;;;;4995713;28;20806;-94
2021/09/07 11:18:23;;;;;;;8.53;7.93;;;29.20;75.20;;;;;;4999203;28;20637;-95
2021/09/07 11:20:51;;;;;;;8.13;7.60;;;29.10;70.90;;;;;;4999193;28;20687;-94
2021/09/07 11:23:20;;;;;;;8.43;7.70;;;29.20;73.00;;;;;;5008011;28;21191;-93
2021/09/07 11:25:49;;;;;;;7.87;6.93;;;28.90;72.10;;;;;;5000660;28;20676;-93
2021/09/07 11:28:17;;;;;;;7.87;7.27;;;28.60;72.70;;;;;;5003471;28;20716;-94
2021/09/07 11:30:47;;;;;;;7.70;7.10;;;28.90;72.60;;;;;;5002709;28;20656;-94
2021/09/07 11:33:15;;;;;;;8.20;7.40;;;29.20;72.50;;;;;;4993250;28;20640;-95
2021/09/07 11:35:47;;;;;;;8.73;6.87;;;29.10;71.20;;;;;;4995045;28;20740;-94
2021/09/07 11:38:17;;;;;;;8.70;8.10;;;28.80;69.70;;;;;;4994493;28;20622;-95
2021/09/07 11:40:46;;;;;;;7.70;7.10;;;29.00;68.60;;;;;;5002065;28;20663;-96
2021/09/07 11:43:15;;;;;;;7.37;6.87;;;29.50;66.50;;;;;;4997863;28;20830;-95
2021/09/07 11:45:42;;;;;;;7.80;7.20;;;28.80;67.50;;;;;;4996042;28;20620;-95
2021/09/07 11:48:11;;;;;;;7.80;7.10;;;29.20;64.70;;;;;;4992324;28;20617;-93
2021/09/07 11:50:39;;;;;;;8.37;7.67;;;29.70;63.70;;;;;;4994569;28;20667;-93
2021/09/07 11:53:10;;;;;;;7.33;6.73;;;29.30;65.60;;;;;;4995831;28;22009;-93
2021/09/07 11:55:50;;;;;;;8.20;7.00;;;29.30;65.40;;;;;;4997110;28;20652;-93
2021/09/07 11:58:39;;;;;;;7.67;7.17;;;30.00;65.20;;;;;;4996273;28;20632;-95
2021/09/07 12:01:11;;;;;;;7.40;6.80;;;29.80;62.60;;;;;;4970838;28;20999;-95
2021/09/07 12:03:43;;;;;;;8.00;7.40;;;30.00;61.70;;;;;;4994775;28;21260;-95
2021/09/07 12:06:12;;;;;;;7.77;7.27;;;30.10;63.10;;;;;;4992804;28;20629;-95
2021/09/07 12:08:43;;;;;;;8.67;6.93;;;29.80;61.20;;;;;;4998941;28;21377;-95
2021/09/07 12:11:13;;;;;;;9.10;8.50;;;30.50;61.00;;;;;;4992454;28;20659;-95
2021/09/07 12:13:41;;;;;;;7.80;7.20;;;31.20;59.30;;;;;;4981840;28;20667;-95
2021/09/07 12:16:08;;;;;;;7.90;7.30;;;31.50;59.20;;;;;;4995511;28;20664;-94
2021/09/07 12:18:40;;;;;;;7.60;7.00;;;31.30;58.30;;;;;;5004625;28;20630;-93
2021/09/07 12:21:09;;;;;;;7.53;6.93;;;31.60;59.60;;;;;;5004514;28;20651;-94
2021/09/07 12:23:37;;;;;;;7.97;7.30;;;30.70;57.00;;;;;;5005034;28;20638;-94
2021/09/07 12:26:06;;;;;;;8.47;7.77;;;30.60;58.40;;;;;;4998403;28;20624;-94
2021/09/07 12:28:34;;;;;;;8.17;7.47;;;30.60;57.90;;;;;;5002446;28;20639;-95
2021/09/07 12:31:18;;;;;;;7.40;6.90;;;31.20;57.70;;;;;;5003150;28;20690;-94
2021/09/07 12:33:52;;;;;;;7.80;7.30;;;31.40;58.00;;;;;;4989492;28;20637;-92
2021/09/07 12:36:22;;;;;;;8.37;7.77;;;31.40;59.10;;;;;;4988200;28;20668;-92
2021/09/07 12:38:50;;;;;;;7.70;7.17;;;31.10;59.90;;;;;;4992172;28;20692;-93
2021/09/07 12:41:21;;;;;;;8.03;7.50;;;31.60;58.80;;;;;;5003486;28;20659;-95
2021/09/07 12:43:53;;;;;;;7.97;7.37;;;31.60;58.10;;;;;;4994306;28;20676;-94
2021/09/07 12:46:21;;;;;;;8.00;7.40;;;32.20;56.10;;;;;;4998660;28;20620;-93